Index of /app/uploads/2026/04/

NameLast ModifiedSize
UpParent Directory
[IMG]cover_pg_JIDA-1152x1536.jpg2026-04-01 13:10 166k
[IMG]cover_pg_JIDA-150x150.jpg2026-04-01 13:10 8k
[IMG]cover_pg_JIDA-225x300.jpg2026-04-01 13:10 16k
[IMG]cover_pg_JIDA-500x800.jpg2026-04-01 13:10 60k
[IMG]cover_pg_JIDA-650x460.jpg2026-04-01 13:10 42k
[IMG]cover_pg_JIDA-768x1024.jpg2026-04-01 13:10 92k
[IMG]cover_pg_JIDA.jpg2026-04-01 13:10 165k
[IMG]DCRS-Report-2024-2025_proof-2-pdf-106x150.jpg2026-04-14 15:19 10k
[IMG]DCRS-Report-2024-2025_proof-2-pdf-212x300.jpg2026-04-14 15:19 20k
[IMG]DCRS-Report-2024-2025_proof-2-pdf-724x1024.jpg2026-04-14 15:19 102k
[IMG]DCRS-Report-2024-2025_proof-2-pdf.jpg2026-04-14 15:19 185k
FileDCRS-Report-2024-2025_proof-2.pdf2026-04-14 15:19 2304k
[IMG]IDA-Financial-Statements-31-12-2025-pdf-106x150.jpg2026-04-13 09:14 3k
[IMG]IDA-Financial-Statements-31-12-2025-pdf-212x300.jpg2026-04-13 09:14 4k
[IMG]IDA-Financial-Statements-31-12-2025-pdf-724x1024.jpg2026-04-13 09:14 20k
[IMG]IDA-Financial-Statements-31-12-2025-pdf.jpg2026-04-13 09:14 34k
FileIDA-Financial-Statements-31-12-2025.pdf2026-04-13 09:14 409k
[IMG]IDA-HR-In-Dentistry_ProgrammeFlyer-1086x1536.jpg2026-04-30 10:42 311k
[IMG]IDA-HR-In-Dentistry_ProgrammeFlyer-1448x2048.jpg2026-04-30 10:42 467k
[IMG]IDA-HR-In-Dentistry_ProgrammeFlyer-150x150.jpg2026-04-30 10:42 24k
[IMG]IDA-HR-In-Dentistry_ProgrammeFlyer-212x300.jpg2026-04-30 10:42 35k
[IMG]IDA-HR-In-Dentistry_ProgrammeFlyer-500x800.jpg2026-04-30 10:42 115k
[IMG]IDA-HR-In-Dentistry_ProgrammeFlyer-650x460.jpg2026-04-30 10:42 85k
[IMG]IDA-HR-In-Dentistry_ProgrammeFlyer-724x1024.jpg2026-04-30 10:42 177k
[IMG]IDA-HR-In-Dentistry_ProgrammeFlyer-768x1086.jpg2026-04-30 10:42 190k
[IMG]IDA-HR-In-Dentistry_ProgrammeFlyer.jpg2026-04-30 10:42 797k
[IMG]IDA_AnnualConference2026Programme_web9-pdf-106x150.jpg2026-04-17 08:15 9k
[IMG]IDA_AnnualConference2026Programme_web9-pdf-212x300.jpg2026-04-17 08:15 18k
[IMG]IDA_AnnualConference2026Programme_web9-pdf-724x1024.jpg2026-04-17 08:15 94k
[IMG]IDA_AnnualConference2026Programme_web9-pdf.jpg2026-04-17 08:15 173k
FileIDA_AnnualConference2026Programme_web9.pdf2026-04-17 08:15 7730k
[IMG]JIDA-Science_PRO-Endodontology-April-May-pdf-112x150.jpg2026-04-01 13:27 8k
[IMG]JIDA-Science_PRO-Endodontology-April-May-pdf-225x300.jpg2026-04-01 13:27 13k
[IMG]JIDA-Science_PRO-Endodontology-April-May-pdf-768x1024.jpg2026-04-01 13:27 85k
[IMG]JIDA-Science_PRO-Endodontology-April-May-pdf.jpg2026-04-01 13:27 155k
FileJIDA-Science_PRO-Endodontology-April-May.pdf2026-04-01 13:27 795k
[IMG]JIDA_Editorial_AprilMay2026_web-pdf-112x150.jpg2026-04-01 13:13 9k
[IMG]JIDA_Editorial_AprilMay2026_web-pdf-225x300.jpg2026-04-01 13:13 19k
[IMG]JIDA_Editorial_AprilMay2026_web-pdf-768x1024.jpg2026-04-01 13:13 93k
[IMG]JIDA_Editorial_AprilMay2026_web-pdf.jpg2026-04-01 13:13 155k
FileJIDA_Editorial_AprilMay2026_web.pdf2026-04-01 13:13 7908k
Proudly Served by LiteSpeed Web Server at dentist.ie Port 443